createdAt,value
2022-10-20T00:01:07.358Z,5.00
2022-10-20T00:06:13.010Z,4.05
2022-10-20T00:11:20.749Z,4.25
2022-10-20T00:16:25.822Z,6.15
2022-10-20T00:21:30.333Z,7.45
2022-10-20T00:26:35.297Z,6.70
2022-10-20T00:36:41.948Z,6.47
2022-10-20T00:41:46.676Z,8.45
2022-10-20T00:46:50.016Z,9.25
2022-10-20T00:51:54.933Z,7.93
2022-10-20T01:02:08.139Z,13.73
2022-10-20T01:07:11.571Z,10.90
2022-10-20T01:12:30.164Z,10.23
2022-10-20T01:17:47.157Z,13.57
2022-10-20T01:23:29.406Z,9.38
2022-10-20T01:28:42.721Z,9.75
2022-10-20T01:33:53.327Z,9.27
2022-10-20T01:39:04.448Z,9.20
2022-10-20T01:44:13.275Z,8.45
2022-10-20T01:49:17.441Z,7.57
2022-10-20T01:54:23.333Z,11.77
2022-10-20T01:59:42.438Z,8.73
2022-10-20T02:05:01.203Z,7.68
2022-10-20T02:10:10.657Z,6.85
2022-10-20T02:15:19.186Z,7.65
2022-10-20T02:20:22.838Z,5.97
2022-10-20T02:25:27.513Z,7.22
2022-10-20T02:30:33.125Z,9.63
2022-10-20T02:35:36.574Z,7.43
2022-10-20T02:40:39.938Z,5.13
2022-10-20T02:45:44.885Z,6.38
2022-10-20T02:55:51.338Z,5.55
2022-10-20T03:00:56.113Z,5.20
2022-10-20T03:11:02.604Z,4.47
2022-10-20T03:16:07.792Z,6.47
2022-10-20T03:21:11.934Z,5.82
2022-10-20T03:26:15.372Z,5.55
2022-10-20T03:31:20.175Z,6.20
2022-10-20T03:36:23.607Z,6.65
2022-10-20T03:41:26.948Z,8.00
2022-10-20T03:46:31.829Z,8.95
2022-10-20T03:51:35.234Z,9.80
2022-10-20T03:56:38.752Z,8.52
2022-10-20T04:01:46.965Z,9.27
2022-10-20T04:06:50.687Z,9.18
2022-10-20T04:11:54.059Z,7.72
2022-10-20T04:16:58.807Z,9.23
2022-10-20T04:22:02.113Z,8.13
2022-10-20T04:27:05.667Z,7.88
2022-10-20T04:32:10.431Z,8.93
2022-10-20T04:37:13.768Z,9.02
2022-10-20T04:42:17.108Z,7.18
2022-10-20T04:47:21.833Z,8.15
2022-10-20T04:52:25.184Z,7.63
2022-10-20T04:57:28.949Z,8.38
2022-10-20T05:02:33.667Z,8.27
2022-10-20T05:07:37.421Z,5.30
2022-10-20T05:12:41.014Z,4.77
2022-10-20T05:17:45.843Z,4.28
2022-10-20T05:27:52.299Z,5.05
2022-10-20T05:32:57.255Z,4.03
2022-10-20T05:38:00.647Z,4.85
2022-10-20T05:43:04.009Z,5.72
2022-10-20T05:48:08.958Z,9.20
2022-10-20T05:53:12.312Z,6.80
2022-10-20T05:58:18.586Z,3.95
2022-10-20T06:03:28.266Z,3.47
2022-10-20T06:08:32.610Z,4.60
2022-10-20T06:13:36.737Z,4.40
2022-10-20T06:18:43.015Z,3.33
2022-10-20T06:23:46.831Z,4.38
2022-10-20T06:28:53.256Z,5.57
2022-10-20T06:33:58.723Z,4.35
2022-10-20T06:39:02.077Z,6.00
2022-10-20T06:44:05.557Z,4.38
2022-10-20T06:49:11.732Z,3.92
2022-10-20T06:54:15.053Z,3.60
2022-10-20T06:59:18.593Z,5.72
2022-10-20T07:04:23.337Z,3.90
2022-10-20T07:14:32.395Z,3.85
2022-10-20T07:19:37.380Z,3.85
2022-10-20T07:29:43.840Z,3.90
2022-10-20T07:34:48.627Z,3.28
2022-10-20T07:39:51.999Z,3.50
2022-10-20T07:44:55.490Z,3.55
2022-10-20T07:50:00.187Z,3.28
2022-10-20T07:55:25.389Z,3.97
2022-10-20T08:00:26.997Z,3.08
2022-10-20T08:05:31.746Z,4.38
2022-10-20T08:15:45.267Z,3.35
2022-10-20T08:20:52.826Z,2.90
2022-10-20T08:25:57.115Z,2.63
2022-10-20T08:31:03.081Z,2.20
2022-10-20T08:36:10.328Z,3.65
2022-10-20T08:41:18.979Z,2.45
2022-10-20T08:46:28.567Z,3.58
2022-10-20T08:51:37.312Z,2.50
2022-10-20T08:56:40.757Z,2.33
2022-10-20T09:01:44.322Z,2.88
2022-10-20T09:06:53.661Z,3.40
2022-10-20T09:12:04.639Z,2.58
2022-10-20T09:17:17.009Z,2.95
2022-10-20T09:22:23.263Z,1.98
2022-10-20T09:27:34.997Z,1.98
2022-10-20T09:32:46.598Z,2.25
2022-10-20T09:38:04.837Z,2.20
2022-10-20T09:43:11.610Z,2.55
2022-10-20T09:48:23.066Z,2.40
2022-10-20T09:53:30.467Z,3.05
2022-10-20T09:58:38.016Z,2.63
2022-10-20T10:03:45.057Z,2.85
2022-10-20T10:08:49.967Z,3.15
2022-10-20T10:19:02.042Z,2.83
2022-10-20T10:24:07.617Z,2.25
2022-10-20T10:29:19.594Z,2.88
2022-10-20T10:34:57.111Z,2.50
2022-10-20T10:40:03.795Z,3.17
2022-10-20T10:45:20.841Z,2.33
2022-10-20T10:50:34.755Z,3.10
2022-10-20T10:55:50.334Z,2.60
2022-10-20T11:01:02.946Z,2.58
2022-10-20T11:06:15.974Z,2.53
2022-10-20T11:11:33.075Z,2.10
2022-10-20T11:16:42.849Z,3.33
2022-10-20T11:21:57.493Z,4.55
2022-10-20T11:27:05.472Z,3.67
2022-10-20T11:32:25.686Z,2.67
2022-10-20T11:37:31.737Z,4.90
2022-10-20T11:42:45.101Z,4.85
2022-10-20T11:47:50.020Z,2.55
2022-10-20T11:53:15.801Z,2.30
2022-10-20T11:58:47.126Z,2.83
2022-10-20T12:04:10.560Z,2.40
2022-10-20T12:09:52.389Z,1.58
2022-10-20T12:15:01.871Z,1.95
2022-10-20T12:20:44.673Z,2.35
2022-10-20T12:25:48.946Z,5.65
2022-10-20T12:30:59.373Z,4.85
2022-10-20T12:36:23.843Z,4.47
2022-10-20T12:41:30.052Z,2.00
2022-10-20T12:46:39.241Z,2.78
2022-10-20T12:51:50.678Z,4.68
2022-10-20T12:56:59.742Z,4.70
2022-10-20T13:02:44.200Z,3.65
2022-10-20T13:08:31.957Z,2.80
2022-10-20T13:13:45.514Z,4.25
2022-10-20T13:18:51.763Z,3.78
2022-10-20T13:24:02.258Z,3.33
2022-10-20T13:29:14.116Z,7.35
2022-10-20T13:34:26.295Z,3.08
2022-10-20T13:39:40.070Z,5.65
2022-10-20T13:44:55.748Z,5.65
2022-10-20T13:50:06.130Z,7.20
2022-10-20T13:55:18.060Z,9.20
2022-10-20T14:00:24.887Z,6.50
2022-10-20T14:05:31.687Z,3.90
2022-10-20T14:10:40.389Z,5.90
2022-10-20T14:15:48.245Z,3.53
2022-10-20T14:21:02.979Z,4.00
2022-10-20T14:26:11.969Z,3.97
2022-10-20T14:31:16.912Z,4.65
2022-10-20T14:41:29.132Z,4.78
2022-10-20T14:46:36.349Z,4.80
2022-10-20T14:51:45.258Z,7.32
2022-10-20T14:56:51.523Z,7.47
2022-10-20T15:02:09.155Z,4.40
2022-10-20T15:07:18.422Z,3.47
2022-10-20T15:12:33.809Z,6.43
2022-10-20T15:17:39.675Z,5.13
2022-10-20T15:22:45.442Z,6.95
2022-10-20T15:27:49.046Z,3.65
2022-10-20T15:32:53.704Z,4.72
2022-10-20T15:37:58.438Z,5.28
2022-10-20T15:43:01.843Z,5.03
2022-10-20T15:48:05.683Z,3.33
2022-10-20T15:53:12.204Z,4.40
2022-10-20T15:58:15.582Z,3.15
2022-10-20T16:03:20.053Z,3.70
2022-10-20T16:08:24.892Z,3.00
2022-10-20T16:18:31.687Z,4.03
2022-10-20T16:23:42.130Z,3.97
2022-10-20T16:28:45.821Z,3.35
2022-10-20T16:33:49.182Z,4.32
2022-10-20T16:38:57.963Z,5.60
2022-10-20T16:44:01.518Z,4.82
2022-10-20T16:49:05.237Z,4.07
2022-10-20T16:54:10.146Z,4.95
2022-10-20T17:04:17.452Z,6.90
2022-10-20T17:09:22.412Z,4.10
2022-10-20T17:14:25.890Z,5.20
2022-10-20T17:19:29.367Z,5.03
2022-10-20T17:24:34.338Z,4.32
2022-10-20T17:29:38.101Z,3.55
2022-10-20T17:34:41.497Z,5.68
2022-10-20T17:39:46.333Z,6.30
2022-10-20T17:49:52.921Z,5.40
2022-10-20T17:54:57.759Z,4.70
2022-10-20T18:00:04.494Z,6.32
2022-10-20T18:05:11.785Z,7.38
2022-10-20T18:10:16.667Z,5.13
2022-10-20T18:20:23.618Z,5.63
2022-10-20T18:25:30.116Z,7.00
2022-10-20T18:30:38.034Z,8.60
2022-10-20T18:35:41.587Z,6.78
2022-10-20T18:40:46.582Z,9.20
2022-10-20T18:45:53.192Z,5.32
2022-10-20T18:50:57.911Z,6.28
2022-10-20T18:56:04.897Z,6.30
2022-10-20T19:01:11.917Z,4.78
2022-10-20T19:06:18.710Z,3.63
2022-10-20T19:11:27.340Z,5.28
2022-10-20T19:16:33.649Z,3.92
2022-10-20T19:21:39.690Z,5.70
2022-10-20T19:26:52.792Z,5.97
2022-10-20T19:32:08.096Z,5.13
2022-10-20T19:42:16.563Z,8.80
2022-10-20T19:47:20.162Z,5.78
2022-10-20T19:52:24.405Z,6.07
2022-10-20T19:57:30.182Z,6.50
2022-10-20T20:02:33.659Z,5.57
2022-10-20T20:07:37.626Z,7.75
2022-10-20T20:12:42.637Z,5.87
2022-10-20T20:17:46.165Z,6.75
2022-10-20T20:22:49.984Z,5.57
2022-10-20T20:27:56.325Z,6.32
2022-10-20T20:32:59.827Z,5.10
2022-10-20T20:38:03.317Z,6.18
2022-10-20T20:43:08.053Z,6.05
2022-10-20T20:48:11.475Z,5.80
2022-10-20T20:53:14.835Z,6.90
2022-10-20T20:58:19.532Z,5.10
2022-10-20T21:03:22.824Z,5.47
2022-10-20T21:08:28.960Z,5.63
2022-10-20T21:13:33.930Z,3.85
2022-10-20T21:23:40.726Z,3.90
2022-10-20T21:28:46.190Z,4.35
2022-10-20T21:33:51.998Z,5.18
2022-10-20T21:38:55.556Z,5.28
2022-10-20T21:44:01.801Z,5.57
2022-10-20T21:49:07.842Z,5.43
2022-10-20T21:54:13.606Z,7.03
2022-10-20T21:59:20.669Z,5.50
2022-10-20T22:04:26.317Z,6.93
2022-10-20T22:09:30.867Z,4.97
2022-10-20T22:14:35.586Z,4.97
2022-10-20T22:19:38.895Z,5.22
2022-10-20T22:24:42.280Z,3.80
2022-10-20T22:29:47.008Z,4.30
2022-10-20T22:34:50.405Z,7.63
2022-10-20T22:39:53.742Z,6.03
2022-10-20T22:44:58.473Z,4.40
2022-10-20T22:50:01.808Z,5.60
2022-10-20T22:55:07.301Z,6.28
2022-10-20T23:00:13.410Z,5.03
2022-10-20T23:05:16.916Z,4.90
2022-10-20T23:10:20.272Z,4.82
2022-10-20T23:15:25.054Z,4.57
2022-10-20T23:20:28.334Z,4.32
2022-10-20T23:25:31.874Z,4.38
2022-10-20T23:30:36.705Z,4.07
2022-10-20T23:40:43.523Z,3.60
2022-10-20T23:45:48.301Z,4.32
2022-10-20T23:50:51.701Z,3.53
2022-10-20T23:55:55.033Z,6.32
